sensor_id;sensor_type;location;lat;lon;timestamp;P1;durP1;ratioP1;P2;durP2;ratioP2
70733;SDS011;58320;48.804;9.252;2023-05-07T00:00:02;7.90;;;4.13;;
70733;SDS011;58320;48.804;9.252;2023-05-07T00:02:32;8.80;;;4.30;;
70733;SDS011;58320;48.804;9.252;2023-05-07T00:04:58;6.03;;;4.20;;
70733;SDS011;58320;48.804;9.252;2023-05-07T00:07:24;6.35;;;4.38;;
70733;SDS011;58320;48.804;9.252;2023-05-07T00:09:50;6.13;;;3.50;;
70733;SDS011;58320;48.804;9.252;2023-05-07T00:12:16;6.73;;;3.90;;
70733;SDS011;58320;48.804;9.252;2023-05-07T00:14:41;6.10;;;3.85;;
70733;SDS011;58320;48.804;9.252;2023-05-07T00:17:07;7.20;;;3.80;;
70733;SDS011;58320;48.804;9.252;2023-05-07T00:19:33;10.18;;;4.15;;
70733;SDS011;58320;48.804;9.252;2023-05-07T00:21:59;7.27;;;4.00;;
70733;SDS011;58320;48.804;9.252;2023-05-07T00:24:25;6.95;;;3.92;;
70733;SDS011;58320;48.804;9.252;2023-05-07T00:26:50;9.27;;;4.50;;
70733;SDS011;58320;48.804;9.252;2023-05-07T00:29:17;7.10;;;4.10;;
70733;SDS011;58320;48.804;9.252;2023-05-07T00:31:43;6.87;;;4.17;;
70733;SDS011;58320;48.804;9.252;2023-05-07T00:34:09;7.95;;;3.92;;
70733;SDS011;58320;48.804;9.252;2023-05-07T00:36:35;6.40;;;4.15;;
70733;SDS011;58320;48.804;9.252;2023-05-07T00:39:00;6.33;;;4.10;;
70733;SDS011;58320;48.804;9.252;2023-05-07T00:41:28;8.90;;;4.18;;
70733;SDS011;58320;48.804;9.252;2023-05-07T00:43:55;6.18;;;3.78;;
70733;SDS011;58320;48.804;9.252;2023-05-07T00:46:21;6.18;;;4.05;;
70733;SDS011;58320;48.804;9.252;2023-05-07T00:48:49;8.20;;;4.07;;
70733;SDS011;58320;48.804;9.252;2023-05-07T00:51:16;6.55;;;4.13;;
70733;SDS011;58320;48.804;9.252;2023-05-07T00:53:43;6.47;;;3.92;;
70733;SDS011;58320;48.804;9.252;2023-05-07T00:56:09;6.13;;;3.80;;
70733;SDS011;58320;48.804;9.252;2023-05-07T00:58:36;7.63;;;4.10;;
70733;SDS011;58320;48.804;9.252;2023-05-07T01:01:02;6.97;;;3.77;;
70733;SDS011;58320;48.804;9.252;2023-05-07T01:03:28;8.73;;;4.13;;
70733;SDS011;58320;48.804;9.252;2023-05-07T01:05:54;6.25;;;4.10;;
70733;SDS011;58320;48.804;9.252;2023-05-07T01:08:22;6.65;;;4.22;;
70733;SDS011;58320;48.804;9.252;2023-05-07T01:10:51;6.25;;;4.20;;
70733;SDS011;58320;48.804;9.252;2023-05-07T01:13:17;7.17;;;4.50;;
70733;SDS011;58320;48.804;9.252;2023-05-07T01:15:44;7.03;;;4.07;;
70733;SDS011;58320;48.804;9.252;2023-05-07T01:18:10;7.13;;;3.72;;
70733;SDS011;58320;48.804;9.252;2023-05-07T01:20:36;6.20;;;3.83;;
70733;SDS011;58320;48.804;9.252;2023-05-07T01:23:02;6.67;;;3.80;;
70733;SDS011;58320;48.804;9.252;2023-05-07T01:25:28;7.13;;;4.20;;
70733;SDS011;58320;48.804;9.252;2023-05-07T01:27:55;6.47;;;4.60;;
70733;SDS011;58320;48.804;9.252;2023-05-07T01:30:21;7.63;;;5.20;;
70733;SDS011;58320;48.804;9.252;2023-05-07T01:32:48;8.00;;;4.43;;
70733;SDS011;58320;48.804;9.252;2023-05-07T01:35:22;7.40;;;4.20;;
70733;SDS011;58320;48.804;9.252;2023-05-07T01:37:54;7.68;;;4.55;;
70733;SDS011;58320;48.804;9.252;2023-05-07T01:40:20;10.77;;;5.03;;
70733;SDS011;58320;48.804;9.252;2023-05-07T01:42:46;7.13;;;4.63;;
70733;SDS011;58320;48.804;9.252;2023-05-07T01:45:13;7.72;;;4.97;;
70733;SDS011;58320;48.804;9.252;2023-05-07T01:47:39;7.32;;;5.07;;
70733;SDS011;58320;48.804;9.252;2023-05-07T01:50:05;7.10;;;4.30;;
70733;SDS011;58320;48.804;9.252;2023-05-07T01:52:33;6.22;;;4.32;;
70733;SDS011;58320;48.804;9.252;2023-05-07T01:55:00;8.07;;;4.47;;
70733;SDS011;58320;48.804;9.252;2023-05-07T01:57:25;8.98;;;4.78;;
70733;SDS011;58320;48.804;9.252;2023-05-07T01:59:51;6.47;;;4.33;;
70733;SDS011;58320;48.804;9.252;2023-05-07T02:02:17;7.68;;;4.35;;
70733;SDS011;58320;48.804;9.252;2023-05-07T02:04:42;7.30;;;4.45;;
70733;SDS011;58320;48.804;9.252;2023-05-07T02:07:08;6.20;;;4.23;;
70733;SDS011;58320;48.804;9.252;2023-05-07T02:09:35;6.57;;;3.90;;
70733;SDS011;58320;48.804;9.252;2023-05-07T02:12:00;6.67;;;4.10;;
70733;SDS011;58320;48.804;9.252;2023-05-07T02:14:26;5.83;;;3.80;;
70733;SDS011;58320;48.804;9.252;2023-05-07T02:16:52;7.13;;;4.15;;
70733;SDS011;58320;48.804;9.252;2023-05-07T02:19:18;6.93;;;4.00;;
70733;SDS011;58320;48.804;9.252;2023-05-07T02:21:46;5.95;;;4.10;;
70733;SDS011;58320;48.804;9.252;2023-05-07T02:24:12;6.10;;;4.22;;
70733;SDS011;58320;48.804;9.252;2023-05-07T02:26:39;7.32;;;3.95;;
70733;SDS011;58320;48.804;9.252;2023-05-07T02:29:06;5.87;;;4.07;;
70733;SDS011;58320;48.804;9.252;2023-05-07T02:31:32;5.75;;;3.80;;
70733;SDS011;58320;48.804;9.252;2023-05-07T02:33:59;7.60;;;4.40;;
70733;SDS011;58320;48.804;9.252;2023-05-07T02:36:25;7.10;;;4.00;;
70733;SDS011;58320;48.804;9.252;2023-05-07T02:38:54;9.90;;;4.25;;
70733;SDS011;58320;48.804;9.252;2023-05-07T02:41:19;5.47;;;3.83;;
70733;SDS011;58320;48.804;9.252;2023-05-07T02:43:45;8.30;;;4.68;;
70733;SDS011;58320;48.804;9.252;2023-05-07T02:46:11;8.18;;;4.53;;
70733;SDS011;58320;48.804;9.252;2023-05-07T02:48:37;6.77;;;4.50;;
70733;SDS011;58320;48.804;9.252;2023-05-07T02:51:03;6.75;;;4.43;;
70733;SDS011;58320;48.804;9.252;2023-05-07T02:53:30;8.02;;;4.88;;
70733;SDS011;58320;48.804;9.252;2023-05-07T02:55:57;8.00;;;5.07;;
70733;SDS011;58320;48.804;9.252;2023-05-07T02:58:24;8.82;;;5.57;;
70733;SDS011;58320;48.804;9.252;2023-05-07T03:00:51;8.90;;;5.57;;
70733;SDS011;58320;48.804;9.252;2023-05-07T03:03:17;7.20;;;5.18;;
70733;SDS011;58320;48.804;9.252;2023-05-07T03:05:42;7.60;;;5.27;;
70733;SDS011;58320;48.804;9.252;2023-05-07T03:08:09;8.48;;;4.88;;
70733;SDS011;58320;48.804;9.252;2023-05-07T03:10:35;8.25;;;4.70;;
70733;SDS011;58320;48.804;9.252;2023-05-07T03:13:02;8.40;;;5.53;;
70733;SDS011;58320;48.804;9.252;2023-05-07T03:15:28;8.13;;;4.93;;
70733;SDS011;58320;48.804;9.252;2023-05-07T03:17:54;7.90;;;5.50;;
70733;SDS011;58320;48.804;9.252;2023-05-07T03:20:20;8.35;;;5.63;;
70733;SDS011;58320;48.804;9.252;2023-05-07T03:22:46;10.23;;;5.78;;
70733;SDS011;58320;48.804;9.252;2023-05-07T03:25:12;8.63;;;5.50;;
70733;SDS011;58320;48.804;9.252;2023-05-07T03:27:39;11.63;;;5.57;;
70733;SDS011;58320;48.804;9.252;2023-05-07T03:30:05;8.45;;;5.43;;
70733;SDS011;58320;48.804;9.252;2023-05-07T03:32:32;9.13;;;5.88;;
70733;SDS011;58320;48.804;9.252;2023-05-07T03:34:58;8.93;;;5.30;;
70733;SDS011;58320;48.804;9.252;2023-05-07T03:37:24;8.13;;;5.30;;
70733;SDS011;58320;48.804;9.252;2023-05-07T03:39:50;8.95;;;5.53;;
70733;SDS011;58320;48.804;9.252;2023-05-07T03:42:15;7.97;;;5.50;;
70733;SDS011;58320;48.804;9.252;2023-05-07T03:44:41;8.30;;;5.10;;
70733;SDS011;58320;48.804;9.252;2023-05-07T03:47:07;7.43;;;4.63;;
70733;SDS011;58320;48.804;9.252;2023-05-07T03:49:33;8.55;;;5.10;;
70733;SDS011;58320;48.804;9.252;2023-05-07T03:51:59;8.63;;;5.25;;
70733;SDS011;58320;48.804;9.252;2023-05-07T03:54:24;8.17;;;4.60;;
70733;SDS011;58320;48.804;9.252;2023-05-07T03:56:50;7.05;;;5.03;;
70733;SDS011;58320;48.804;9.252;2023-05-07T03:59:16;7.23;;;4.73;;
70733;SDS011;58320;48.804;9.252;2023-05-07T04:01:41;7.30;;;4.50;;
70733;SDS011;58320;48.804;9.252;2023-05-07T04:04:07;7.50;;;4.50;;
70733;SDS011;58320;48.804;9.252;2023-05-07T04:06:33;6.25;;;4.28;;
70733;SDS011;58320;48.804;9.252;2023-05-07T04:08:59;7.78;;;4.55;;
70733;SDS011;58320;48.804;9.252;2023-05-07T04:11:24;6.57;;;4.43;;
70733;SDS011;58320;48.804;9.252;2023-05-07T04:13:50;8.57;;;4.35;;
70733;SDS011;58320;48.804;9.252;2023-05-07T04:16:16;6.83;;;4.50;;
70733;SDS011;58320;48.804;9.252;2023-05-07T04:18:42;7.20;;;4.60;;
70733;SDS011;58320;48.804;9.252;2023-05-07T04:21:14;6.73;;;4.17;;
70733;SDS011;58320;48.804;9.252;2023-05-07T04:23:41;7.15;;;4.93;;
70733;SDS011;58320;48.804;9.252;2023-05-07T04:26:07;9.07;;;4.72;;
70733;SDS011;58320;48.804;9.252;2023-05-07T04:28:33;7.95;;;4.68;;
70733;SDS011;58320;48.804;9.252;2023-05-07T04:31:01;8.10;;;4.90;;
70733;SDS011;58320;48.804;9.252;2023-05-07T04:33:27;7.88;;;4.85;;
70733;SDS011;58320;48.804;9.252;2023-05-07T04:35:52;7.63;;;4.35;;
70733;SDS011;58320;48.804;9.252;2023-05-07T04:38:18;7.23;;;4.83;;
70733;SDS011;58320;48.804;9.252;2023-05-07T04:40:44;6.20;;;4.35;;
70733;SDS011;58320;48.804;9.252;2023-05-07T04:43:10;6.67;;;4.20;;
70733;SDS011;58320;48.804;9.252;2023-05-07T04:45:36;6.70;;;4.30;;
70733;SDS011;58320;48.804;9.252;2023-05-07T04:48:02;6.53;;;4.10;;
70733;SDS011;58320;48.804;9.252;2023-05-07T04:50:28;8.30;;;3.97;;
70733;SDS011;58320;48.804;9.252;2023-05-07T04:52:55;6.70;;;3.90;;
70733;SDS011;58320;48.804;9.252;2023-05-07T04:55:21;5.65;;;3.72;;
70733;SDS011;58320;48.804;9.252;2023-05-07T04:57:46;5.93;;;3.83;;
70733;SDS011;58320;48.804;9.252;2023-05-07T05:00:12;5.53;;;4.17;;
70733;SDS011;58320;48.804;9.252;2023-05-07T05:02:41;6.45;;;3.70;;
70733;SDS011;58320;48.804;9.252;2023-05-07T05:05:07;6.78;;;4.25;;
70733;SDS011;58320;48.804;9.252;2023-05-07T05:07:33;8.57;;;4.50;;
70733;SDS011;58320;48.804;9.252;2023-05-07T05:09:59;6.80;;;4.15;;
70733;SDS011;58320;48.804;9.252;2023-05-07T05:12:25;8.77;;;4.28;;
70733;SDS011;58320;48.804;9.252;2023-05-07T05:14:50;8.47;;;4.67;;
70733;SDS011;58320;48.804;9.252;2023-05-07T05:17:17;8.68;;;5.35;;
70733;SDS011;58320;48.804;9.252;2023-05-07T05:19:43;8.65;;;5.07;;
70733;SDS011;58320;48.804;9.252;2023-05-07T05:22:08;8.03;;;4.83;;
70733;SDS011;58320;48.804;9.252;2023-05-07T05:24:34;7.28;;;4.90;;
70733;SDS011;58320;48.804;9.252;2023-05-07T05:27:00;8.03;;;5.50;;
70733;SDS011;58320;48.804;9.252;2023-05-07T05:29:26;9.52;;;5.20;;
70733;SDS011;58320;48.804;9.252;2023-05-07T05:31:52;8.02;;;5.47;;
70733;SDS011;58320;48.804;9.252;2023-05-07T05:34:18;8.68;;;6.03;;
70733;SDS011;58320;48.804;9.252;2023-05-07T05:36:47;8.07;;;5.83;;
70733;SDS011;58320;48.804;9.252;2023-05-07T05:39:13;9.13;;;5.22;;
70733;SDS011;58320;48.804;9.252;2023-05-07T05:41:39;8.55;;;5.20;;
70733;SDS011;58320;48.804;9.252;2023-05-07T05:44:05;7.72;;;4.88;;
70733;SDS011;58320;48.804;9.252;2023-05-07T05:46:31;8.07;;;5.10;;
70733;SDS011;58320;48.804;9.252;2023-05-07T05:48:57;6.78;;;4.50;;
70733;SDS011;58320;48.804;9.252;2023-05-07T05:51:23;6.97;;;4.80;;
70733;SDS011;58320;48.804;9.252;2023-05-07T05:53:48;8.53;;;6.00;;
70733;SDS011;58320;48.804;9.252;2023-05-07T05:56:15;7.03;;;4.53;;
70733;SDS011;58320;48.804;9.252;2023-05-07T05:58:41;6.70;;;4.70;;
70733;SDS011;58320;48.804;9.252;2023-05-07T06:01:07;7.90;;;3.97;;
70733;SDS011;58320;48.804;9.252;2023-05-07T06:03:33;16.93;;;5.43;;
70733;SDS011;58320;48.804;9.252;2023-05-07T06:05:59;7.63;;;5.03;;
70733;SDS011;58320;48.804;9.252;2023-05-07T06:08:30;6.93;;;4.40;;
70733;SDS011;58320;48.804;9.252;2023-05-07T06:10:56;8.48;;;5.70;;
70733;SDS011;58320;48.804;9.252;2023-05-07T06:13:22;7.73;;;5.30;;
70733;SDS011;58320;48.804;9.252;2023-05-07T06:15:48;9.13;;;5.88;;
70733;SDS011;58320;48.804;9.252;2023-05-07T06:18:14;7.47;;;4.80;;
70733;SDS011;58320;48.804;9.252;2023-05-07T06:20:40;7.33;;;4.57;;
70733;SDS011;58320;48.804;9.252;2023-05-07T06:23:06;8.48;;;4.50;;
70733;SDS011;58320;48.804;9.252;2023-05-07T06:25:31;9.13;;;5.28;;
70733;SDS011;58320;48.804;9.252;2023-05-07T06:27:57;7.50;;;4.67;;
70733;SDS011;58320;48.804;9.252;2023-05-07T06:30:23;8.13;;;4.90;;
70733;SDS011;58320;48.804;9.252;2023-05-07T06:32:49;6.70;;;4.33;;
70733;SDS011;58320;48.804;9.252;2023-05-07T06:35:14;8.77;;;5.47;;
70733;SDS011;58320;48.804;9.252;2023-05-07T06:37:40;11.50;;;6.33;;
70733;SDS011;58320;48.804;9.252;2023-05-07T06:40:07;8.85;;;5.68;;
70733;SDS011;58320;48.804;9.252;2023-05-07T06:42:35;6.68;;;5.05;;
70733;SDS011;58320;48.804;9.252;2023-05-07T06:45:02;7.75;;;5.65;;
70733;SDS011;58320;48.804;9.252;2023-05-07T06:47:28;7.65;;;5.07;;
70733;SDS011;58320;48.804;9.252;2023-05-07T06:49:54;7.23;;;5.13;;
70733;SDS011;58320;48.804;9.252;2023-05-07T06:52:20;7.65;;;4.65;;
70733;SDS011;58320;48.804;9.252;2023-05-07T06:54:45;7.10;;;4.90;;
70733;SDS011;58320;48.804;9.252;2023-05-07T06:57:11;9.73;;;4.90;;
70733;SDS011;58320;48.804;9.252;2023-05-07T06:59:37;7.25;;;4.97;;
70733;SDS011;58320;48.804;9.252;2023-05-07T07:02:03;7.47;;;4.80;;
70733;SDS011;58320;48.804;9.252;2023-05-07T07:04:29;9.97;;;4.87;;
70733;SDS011;58320;48.804;9.252;2023-05-07T07:06:57;8.27;;;4.68;;
70733;SDS011;58320;48.804;9.252;2023-05-07T07:09:23;7.50;;;5.22;;
70733;SDS011;58320;48.804;9.252;2023-05-07T07:11:48;7.63;;;4.60;;
70733;SDS011;58320;48.804;9.252;2023-05-07T07:14:14;7.13;;;4.38;;
70733;SDS011;58320;48.804;9.252;2023-05-07T07:16:40;6.30;;;4.67;;
70733;SDS011;58320;48.804;9.252;2023-05-07T07:19:06;7.47;;;5.03;;
70733;SDS011;58320;48.804;9.252;2023-05-07T07:21:31;7.67;;;4.60;;
70733;SDS011;58320;48.804;9.252;2023-05-07T07:23:57;6.75;;;4.00;;
70733;SDS011;58320;48.804;9.252;2023-05-07T07:26:23;6.15;;;4.65;;
70733;SDS011;58320;48.804;9.252;2023-05-07T07:28:49;8.05;;;4.97;;
70733;SDS011;58320;48.804;9.252;2023-05-07T07:31:15;8.47;;;5.13;;
70733;SDS011;58320;48.804;9.252;2023-05-07T07:33:40;5.82;;;4.43;;
70733;SDS011;58320;48.804;9.252;2023-05-07T07:36:06;6.67;;;4.40;;
70733;SDS011;58320;48.804;9.252;2023-05-07T07:38:33;7.80;;;4.82;;
70733;SDS011;58320;48.804;9.252;2023-05-07T07:40:59;5.40;;;4.10;;
70733;SDS011;58320;48.804;9.252;2023-05-07T07:43:26;5.53;;;3.83;;
70733;SDS011;58320;48.804;9.252;2023-05-07T07:45:52;5.77;;;3.20;;
70733;SDS011;58320;48.804;9.252;2023-05-07T07:48:18;5.43;;;3.85;;
70733;SDS011;58320;48.804;9.252;2023-05-07T07:50:44;5.25;;;3.35;;
70733;SDS011;58320;48.804;9.252;2023-05-07T07:53:10;6.27;;;3.97;;
70733;SDS011;58320;48.804;9.252;2023-05-07T07:55:39;5.27;;;3.60;;
70733;SDS011;58320;48.804;9.252;2023-05-07T07:58:05;5.95;;;3.97;;
70733;SDS011;58320;48.804;9.252;2023-05-07T08:00:31;5.07;;;3.53;;
70733;SDS011;58320;48.804;9.252;2023-05-07T08:02:56;5.77;;;3.50;;
70733;SDS011;58320;48.804;9.252;2023-05-07T08:05:22;5.30;;;3.70;;
70733;SDS011;58320;48.804;9.252;2023-05-07T08:07:48;5.87;;;4.10;;
70733;SDS011;58320;48.804;9.252;2023-05-07T08:10:18;5.53;;;3.45;;
70733;SDS011;58320;48.804;9.252;2023-05-07T08:12:47;4.95;;;3.50;;
70733;SDS011;58320;48.804;9.252;2023-05-07T08:15:14;5.28;;;3.80;;
70733;SDS011;58320;48.804;9.252;2023-05-07T08:17:40;5.65;;;4.15;;
70733;SDS011;58320;48.804;9.252;2023-05-07T08:20:06;6.87;;;4.90;;
70733;SDS011;58320;48.804;9.252;2023-05-07T08:22:33;7.68;;;4.60;;
70733;SDS011;58320;48.804;9.252;2023-05-07T08:25:00;6.00;;;4.50;;
70733;SDS011;58320;48.804;9.252;2023-05-07T08:27:26;5.07;;;3.45;;
70733;SDS011;58320;48.804;9.252;2023-05-07T08:29:52;5.60;;;3.53;;
70733;SDS011;58320;48.804;9.252;2023-05-07T08:32:18;6.13;;;4.07;;
70733;SDS011;58320;48.804;9.252;2023-05-07T08:34:44;5.75;;;3.38;;
70733;SDS011;58320;48.804;9.252;2023-05-07T08:37:10;4.70;;;3.33;;
70733;SDS011;58320;48.804;9.252;2023-05-07T08:39:36;5.03;;;3.25;;
70733;SDS011;58320;48.804;9.252;2023-05-07T08:42:01;5.70;;;3.80;;
70733;SDS011;58320;48.804;9.252;2023-05-07T08:44:32;4.95;;;3.42;;
70733;SDS011;58320;48.804;9.252;2023-05-07T08:47:02;5.13;;;3.50;;
70733;SDS011;58320;48.804;9.252;2023-05-07T08:49:31;5.53;;;3.40;;
70733;SDS011;58320;48.804;9.252;2023-05-07T08:51:59;4.60;;;3.50;;
70733;SDS011;58320;48.804;9.252;2023-05-07T08:54:25;6.07;;;3.60;;
70733;SDS011;58320;48.804;9.252;2023-05-07T08:56:52;5.03;;;3.20;;
70733;SDS011;58320;48.804;9.252;2023-05-07T08:59:18;5.10;;;3.22;;
70733;SDS011;58320;48.804;9.252;2023-05-07T09:01:44;5.47;;;3.05;;
70733;SDS011;58320;48.804;9.252;2023-05-07T09:04:10;5.47;;;3.03;;
70733;SDS011;58320;48.804;9.252;2023-05-07T09:06:37;5.13;;;3.53;;
70733;SDS011;58320;48.804;9.252;2023-05-07T09:09:06;6.28;;;3.35;;
70733;SDS011;58320;48.804;9.252;2023-05-07T09:11:33;5.72;;;2.90;;
70733;SDS011;58320;48.804;9.252;2023-05-07T09:13:58;4.20;;;2.92;;
70733;SDS011;58320;48.804;9.252;2023-05-07T09:16:26;4.67;;;3.30;;
70733;SDS011;58320;48.804;9.252;2023-05-07T09:18:55;4.70;;;3.00;;
70733;SDS011;58320;48.804;9.252;2023-05-07T09:21:23;4.30;;;3.13;;
70733;SDS011;58320;48.804;9.252;2023-05-07T09:23:52;4.07;;;2.50;;
70733;SDS011;58320;48.804;9.252;2023-05-07T09:26:23;3.95;;;2.63;;
70733;SDS011;58320;48.804;9.252;2023-05-07T09:28:50;9.23;;;3.38;;
70733;SDS011;58320;48.804;9.252;2023-05-07T09:31:16;4.43;;;2.83;;
70733;SDS011;58320;48.804;9.252;2023-05-07T09:33:42;4.13;;;2.50;;
70733;SDS011;58320;48.804;9.252;2023-05-07T09:36:09;5.00;;;2.70;;
70733;SDS011;58320;48.804;9.252;2023-05-07T09:38:36;6.55;;;2.75;;
70733;SDS011;58320;48.804;9.252;2023-05-07T09:43:35;3.77;;;2.60;;
70733;SDS011;58320;48.804;9.252;2023-05-07T09:46:12;5.07;;;2.75;;
70733;SDS011;58320;48.804;9.252;2023-05-07T09:48:41;3.58;;;2.40;;
70733;SDS011;58320;48.804;9.252;2023-05-07T09:51:15;5.78;;;2.60;;
70733;SDS011;58320;48.804;9.252;2023-05-07T09:53:53;5.00;;;2.53;;
70733;SDS011;58320;48.804;9.252;2023-05-07T09:56:19;3.80;;;2.63;;
70733;SDS011;58320;48.804;9.252;2023-05-07T09:58:46;5.47;;;2.97;;
70733;SDS011;58320;48.804;9.252;2023-05-07T10:01:12;4.88;;;2.72;;
70733;SDS011;58320;48.804;9.252;2023-05-07T10:03:40;5.38;;;2.50;;
70733;SDS011;58320;48.804;9.252;2023-05-07T10:06:08;4.00;;;2.50;;
70733;SDS011;58320;48.804;9.252;2023-05-07T10:08:35;4.17;;;2.73;;
70733;SDS011;58320;48.804;9.252;2023-05-07T10:11:05;4.95;;;2.50;;
70733;SDS011;58320;48.804;9.252;2023-05-07T10:13:32;3.90;;;2.47;;
70733;SDS011;58320;48.804;9.252;2023-05-07T10:16:03;4.30;;;2.70;;
70733;SDS011;58320;48.804;9.252;2023-05-07T10:18:30;5.53;;;2.50;;
70733;SDS011;58320;48.804;9.252;2023-05-07T10:21:07;4.88;;;2.42;;
70733;SDS011;58320;48.804;9.252;2023-05-07T10:23:37;4.40;;;2.73;;
70733;SDS011;58320;48.804;9.252;2023-05-07T10:26:04;5.15;;;2.60;;
70733;SDS011;58320;48.804;9.252;2023-05-07T10:28:33;4.53;;;2.60;;
70733;SDS011;58320;48.804;9.252;2023-05-07T10:33:53;6.47;;;3.00;;
70733;SDS011;58320;48.804;9.252;2023-05-07T10:36:21;9.13;;;2.80;;
70733;SDS011;58320;48.804;9.252;2023-05-07T10:38:48;5.60;;;2.60;;
70733;SDS011;58320;48.804;9.252;2023-05-07T10:41:14;6.00;;;2.65;;
70733;SDS011;58320;48.804;9.252;2023-05-07T10:43:42;5.03;;;2.78;;
70733;SDS011;58320;48.804;9.252;2023-05-07T10:46:10;6.03;;;2.70;;
70733;SDS011;58320;48.804;9.252;2023-05-07T10:51:33;4.13;;;2.37;;
70733;SDS011;58320;48.804;9.252;2023-05-07T10:56:34;3.63;;;2.30;;
70733;SDS011;58320;48.804;9.252;2023-05-07T11:01:58;4.75;;;2.60;;
70733;SDS011;58320;48.804;9.252;2023-05-07T11:04:32;3.88;;;2.47;;
70733;SDS011;58320;48.804;9.252;2023-05-07T11:10:04;4.60;;;2.65;;
70733;SDS011;58320;48.804;9.252;2023-05-07T11:15:07;4.07;;;2.77;;
70733;SDS011;58320;48.804;9.252;2023-05-07T11:20:20;4.57;;;2.75;;
70733;SDS011;58320;48.804;9.252;2023-05-07T11:25:58;3.70;;;2.30;;
70733;SDS011;58320;48.804;9.252;2023-05-07T11:28:39;3.53;;;2.50;;
70733;SDS011;58320;48.804;9.252;2023-05-07T11:31:07;4.30;;;2.43;;
70733;SDS011;58320;48.804;9.252;2023-05-07T11:33:34;3.80;;;2.57;;
70733;SDS011;58320;48.804;9.252;2023-05-07T11:36:01;4.47;;;2.40;;
70733;SDS011;58320;48.804;9.252;2023-05-07T11:38:38;3.75;;;2.47;;
70733;SDS011;58320;48.804;9.252;2023-05-07T11:41:04;3.25;;;2.20;;
70733;SDS011;58320;48.804;9.252;2023-05-07T11:43:30;3.20;;;2.30;;
70733;SDS011;58320;48.804;9.252;2023-05-07T11:46:10;5.35;;;2.33;;
70733;SDS011;58320;48.804;9.252;2023-05-07T11:48:37;3.28;;;2.20;;
70733;SDS011;58320;48.804;9.252;2023-05-07T11:51:04;5.50;;;2.10;;
70733;SDS011;58320;48.804;9.252;2023-05-07T11:53:40;4.93;;;2.63;;
70733;SDS011;58320;48.804;9.252;2023-05-07T11:56:08;4.35;;;2.20;;
70733;SDS011;58320;48.804;9.252;2023-05-07T11:58:36;3.25;;;2.35;;
70733;SDS011;58320;48.804;9.252;2023-05-07T12:01:02;4.20;;;2.45;;
70733;SDS011;58320;48.804;9.252;2023-05-07T12:03:28;3.42;;;2.40;;
70733;SDS011;58320;48.804;9.252;2023-05-07T12:05:54;3.93;;;2.20;;
70733;SDS011;58320;48.804;9.252;2023-05-07T12:08:20;7.88;;;2.80;;
70733;SDS011;58320;48.804;9.252;2023-05-07T12:10:47;4.00;;;2.53;;
70733;SDS011;58320;48.804;9.252;2023-05-07T12:13:18;4.25;;;2.50;;
70733;SDS011;58320;48.804;9.252;2023-05-07T12:15:46;4.95;;;2.60;;
70733;SDS011;58320;48.804;9.252;2023-05-07T12:18:16;4.50;;;2.67;;
70733;SDS011;58320;48.804;9.252;2023-05-07T12:20:42;4.33;;;2.60;;
70733;SDS011;58320;48.804;9.252;2023-05-07T12:23:08;4.47;;;2.47;;
70733;SDS011;58320;48.804;9.252;2023-05-07T12:25:40;4.85;;;2.22;;
70733;SDS011;58320;48.804;9.252;2023-05-07T12:28:15;3.83;;;2.55;;
70733;SDS011;58320;48.804;9.252;2023-05-07T12:30:43;4.03;;;2.30;;
70733;SDS011;58320;48.804;9.252;2023-05-07T12:33:11;3.70;;;2.23;;
70733;SDS011;58320;48.804;9.252;2023-05-07T12:35:41;3.50;;;2.10;;
70733;SDS011;58320;48.804;9.252;2023-05-07T12:38:12;5.03;;;2.63;;
70733;SDS011;58320;48.804;9.252;2023-05-07T12:40:43;4.35;;;2.80;;
70733;SDS011;58320;48.804;9.252;2023-05-07T12:43:23;5.38;;;3.03;;
70733;SDS011;58320;48.804;9.252;2023-05-07T12:45:52;6.47;;;3.17;;
70733;SDS011;58320;48.804;9.252;2023-05-07T12:48:20;6.10;;;3.10;;
70733;SDS011;58320;48.804;9.252;2023-05-07T12:50:51;8.02;;;3.65;;
70733;SDS011;58320;48.804;9.252;2023-05-07T12:53:22;7.32;;;3.47;;
70733;SDS011;58320;48.804;9.252;2023-05-07T12:55:56;9.15;;;4.10;;
70733;SDS011;58320;48.804;9.252;2023-05-07T12:58:28;5.73;;;3.73;;
70733;SDS011;58320;48.804;9.252;2023-05-07T13:00:59;7.90;;;3.90;;
70733;SDS011;58320;48.804;9.252;2023-05-07T13:03:31;5.18;;;3.20;;
70733;SDS011;58320;48.804;9.252;2023-05-07T13:06:02;5.82;;;3.50;;
70733;SDS011;58320;48.804;9.252;2023-05-07T13:08:32;7.32;;;3.35;;
70733;SDS011;58320;48.804;9.252;2023-05-07T13:11:06;5.50;;;3.53;;
70733;SDS011;58320;48.804;9.252;2023-05-07T13:13:34;6.97;;;4.10;;
70733;SDS011;58320;48.804;9.252;2023-05-07T13:16:01;8.65;;;3.70;;
70733;SDS011;58320;48.804;9.252;2023-05-07T13:18:31;6.13;;;3.30;;
70733;SDS011;58320;48.804;9.252;2023-05-07T13:20:58;6.43;;;3.20;;
70733;SDS011;58320;48.804;9.252;2023-05-07T13:23:25;4.67;;;2.20;;
70733;SDS011;58320;48.804;9.252;2023-05-07T13:25:52;8.15;;;3.30;;
70733;SDS011;58320;48.804;9.252;2023-05-07T13:28:19;7.80;;;3.00;;
70733;SDS011;58320;48.804;9.252;2023-05-07T13:30:45;6.28;;;2.58;;
70733;SDS011;58320;48.804;9.252;2023-05-07T13:33:11;6.50;;;2.28;;
70733;SDS011;58320;48.804;9.252;2023-05-07T13:35:37;4.27;;;1.40;;
70733;SDS011;58320;48.804;9.252;2023-05-07T13:38:03;5.15;;;1.30;;
70733;SDS011;58320;48.804;9.252;2023-05-07T13:40:30;3.28;;;1.13;;
70733;SDS011;58320;48.804;9.252;2023-05-07T13:42:59;6.38;;;1.40;;
70733;SDS011;58320;48.804;9.252;2023-05-07T13:45:27;3.72;;;1.42;;
70733;SDS011;58320;48.804;9.252;2023-05-07T13:47:54;6.77;;;1.43;;
70733;SDS011;58320;48.804;9.252;2023-05-07T13:50:21;4.05;;;1.40;;
70733;SDS011;58320;48.804;9.252;2023-05-07T13:52:47;3.65;;;1.42;;
70733;SDS011;58320;48.804;9.252;2023-05-07T13:55:19;2.58;;;1.20;;
70733;SDS011;58320;48.804;9.252;2023-05-07T13:57:46;5.05;;;1.40;;
70733;SDS011;58320;48.804;9.252;2023-05-07T14:00:13;4.17;;;1.97;;
70733;SDS011;58320;48.804;9.252;2023-05-07T14:02:39;4.10;;;1.75;;
70733;SDS011;58320;48.804;9.252;2023-05-07T14:05:05;4.13;;;1.83;;
70733;SDS011;58320;48.804;9.252;2023-05-07T14:07:32;11.52;;;1.90;;
70733;SDS011;58320;48.804;9.252;2023-05-07T14:09:58;7.00;;;2.92;;
70733;SDS011;58320;48.804;9.252;2023-05-07T14:12:24;7.10;;;3.97;;
70733;SDS011;58320;48.804;9.252;2023-05-07T14:14:50;6.90;;;2.47;;
70733;SDS011;58320;48.804;9.252;2023-05-07T14:17:16;7.57;;;2.47;;
70733;SDS011;58320;48.804;9.252;2023-05-07T14:19:43;5.10;;;1.90;;
70733;SDS011;58320;48.804;9.252;2023-05-07T14:22:09;4.82;;;2.28;;
70733;SDS011;58320;48.804;9.252;2023-05-07T14:24:35;5.20;;;2.13;;
70733;SDS011;58320;48.804;9.252;2023-05-07T14:27:01;5.82;;;3.10;;
70733;SDS011;58320;48.804;9.252;2023-05-07T14:29:27;7.97;;;3.40;;
70733;SDS011;58320;48.804;9.252;2023-05-07T14:31:53;7.38;;;3.33;;
70733;SDS011;58320;48.804;9.252;2023-05-07T14:34:19;5.13;;;2.45;;
70733;SDS011;58320;48.804;9.252;2023-05-07T14:36:45;5.80;;;3.00;;
70733;SDS011;58320;48.804;9.252;2023-05-07T14:39:11;5.30;;;3.40;;
70733;SDS011;58320;48.804;9.252;2023-05-07T14:41:36;5.43;;;3.13;;
70733;SDS011;58320;48.804;9.252;2023-05-07T14:44:03;6.40;;;3.38;;
70733;SDS011;58320;48.804;9.252;2023-05-07T14:46:29;6.43;;;3.30;;
70733;SDS011;58320;48.804;9.252;2023-05-07T14:48:56;6.10;;;3.00;;
70733;SDS011;58320;48.804;9.252;2023-05-07T14:51:22;5.57;;;3.10;;
70733;SDS011;58320;48.804;9.252;2023-05-07T14:53:49;5.50;;;2.80;;
70733;SDS011;58320;48.804;9.252;2023-05-07T14:56:15;4.97;;;2.90;;
70733;SDS011;58320;48.804;9.252;2023-05-07T14:58:41;5.80;;;2.70;;
70733;SDS011;58320;48.804;9.252;2023-05-07T15:01:08;3.80;;;2.50;;
70733;SDS011;58320;48.804;9.252;2023-05-07T15:03:34;6.10;;;2.60;;
70733;SDS011;58320;48.804;9.252;2023-05-07T15:06:01;5.28;;;3.00;;
70733;SDS011;58320;48.804;9.252;2023-05-07T15:08:27;11.07;;;5.70;;
70733;SDS011;58320;48.804;9.252;2023-05-07T15:10:53;9.07;;;5.60;;